sensor_id;sensor_type;location;lat;lon;timestamp;pressure;altitude;pressure_sealevel;temperature;humidity
3150;BME280;32503;47.748;8.960;2022-10-16T00:01:35;96875.28;;;15.73;72.82
3150;BME280;32503;47.748;8.960;2022-10-16T00:04:03;96868.66;;;15.74;72.51
3150;BME280;32503;47.748;8.960;2022-10-16T00:06:30;96869.81;;;15.73;72.96
3150;BME280;32503;47.748;8.960;2022-10-16T00:08:57;96875.28;;;15.73;72.95
3150;BME280;32503;47.748;8.960;2022-10-16T00:11:27;96868.25;;;15.68;72.98
3150;BME280;32503;47.748;8.960;2022-10-16T00:13:58;96872.16;;;15.67;73.25
3150;BME280;32503;47.748;8.960;2022-10-16T00:16:26;96867.09;;;15.66;73.40
3150;BME280;32503;47.748;8.960;2022-10-16T00:18:53;96875.66;;;15.68;73.30
3150;BME280;32503;47.748;8.960;2022-10-16T00:21:22;96877.22;;;15.69;73.22
3150;BME280;32503;47.748;8.960;2022-10-16T00:23:51;96873.69;;;15.65;73.48
3150;BME280;32503;47.748;8.960;2022-10-16T00:26:19;96879.97;;;15.69;73.22
3150;BME280;32503;47.748;8.960;2022-10-16T00:28:46;96883.84;;;15.68;73.60
3150;BME280;32503;47.748;8.960;2022-10-16T00:31:16;96879.97;;;15.69;72.97
3150;BME280;32503;47.748;8.960;2022-10-16T00:33:45;96876.03;;;15.70;73.31
3150;BME280;32503;47.748;8.960;2022-10-16T00:36:14;96873.69;;;15.68;73.07
3150;BME280;32503;47.748;8.960;2022-10-16T00:38:41;96867.47;;;15.68;73.32
3150;BME280;32503;47.748;8.960;2022-10-16T00:41:13;96865.91;;;15.63;73.24
3150;BME280;32503;47.748;8.960;2022-10-16T00:43:43;96865.53;;;15.65;73.12
3150;BME280;32503;47.748;8.960;2022-10-16T00:46:17;96873.31;;;15.63;73.24
3150;BME280;32503;47.748;8.960;2022-10-16T00:48:52;96870.19;;;15.61;73.61
3150;BME280;32503;47.748;8.960;2022-10-16T00:51:27;96877.19;;;15.62;73.69
3150;BME280;32503;47.748;8.960;2022-10-16T00:53:55;96881.50;;;15.63;73.69
3150;BME280;32503;47.748;8.960;2022-10-16T00:56:23;96871.72;;;15.54;73.66
3150;BME280;32503;47.748;8.960;2022-10-16T00:58:50;96874.47;;;15.58;74.16
3150;BME280;32503;47.748;8.960;2022-10-16T01:01:18;96869.00;;;15.54;73.73
3150;BME280;32503;47.748;8.960;2022-10-16T01:03:45;96867.84;;;15.63;74.04
3150;BME280;32503;47.748;8.960;2022-10-16T01:06:23;96876.81;;;15.67;73.40
3150;BME280;32503;47.748;8.960;2022-10-16T01:09:06;96867.09;;;15.59;73.51
3150;BME280;32503;47.748;8.960;2022-10-16T01:11:47;96877.59;;;15.64;73.62
3150;BME280;32503;47.748;8.960;2022-10-16T01:14:24;96878.00;;;15.66;73.74
3150;BME280;32503;47.748;8.960;2022-10-16T01:17:01;96882.25;;;15.63;73.80
3150;BME280;32503;47.748;8.960;2022-10-16T01:19:50;96873.69;;;15.54;73.90
3150;BME280;32503;47.748;8.960;2022-10-16T01:22:24;96895.09;;;15.55;73.98
3150;BME280;32503;47.748;8.960;2022-10-16T01:24:55;96896.25;;;15.58;74.24
3150;BME280;32503;47.748;8.960;2022-10-16T01:27:30;96888.44;;;15.49;74.26
3150;BME280;32503;47.748;8.960;2022-10-16T01:30:07;96908.72;;;15.55;74.73
3150;BME280;32503;47.748;8.960;2022-10-16T01:32:40;96900.16;;;15.50;74.53
3150;BME280;32503;47.748;8.960;2022-10-16T01:35:13;96903.25;;;15.52;74.62
3150;BME280;32503;47.748;8.960;2022-10-16T01:37:48;96904.03;;;15.52;75.03
3150;BME280;32503;47.748;8.960;2022-10-16T01:40:19;96904.03;;;15.52;75.00
3150;BME280;32503;47.748;8.960;2022-10-16T01:42:52;96898.59;;;15.56;74.63
3150;BME280;32503;47.748;8.960;2022-10-16T01:45:22;96902.50;;;15.59;74.21
3150;BME280;32503;47.748;8.960;2022-10-16T01:47:50;96910.31;;;15.64;74.10
3150;BME280;32503;47.748;8.960;2022-10-16T01:50:20;96911.84;;;15.61;73.89
3150;BME280;32503;47.748;8.960;2022-10-16T01:52:50;96910.28;;;15.57;74.29
3150;BME280;32503;47.748;8.960;2022-10-16T01:55:27;96905.22;;;15.59;74.68
3150;BME280;32503;47.748;8.960;2022-10-16T01:57:59;96899.78;;;15.59;74.55
3150;BME280;32503;47.748;8.960;2022-10-16T02:00:27;96898.59;;;15.60;74.28
3150;BME280;32503;47.748;8.960;2022-10-16T02:02:57;96909.50;;;15.60;74.55
3150;BME280;32503;47.748;8.960;2022-10-16T02:05:29;96897.06;;;15.59;74.25
3150;BME280;32503;47.748;8.960;2022-10-16T02:07:57;96884.19;;;15.48;74.31
3150;BME280;32503;47.748;8.960;2022-10-16T02:10:25;96902.13;;;15.60;74.30
3150;BME280;32503;47.748;8.960;2022-10-16T02:13:02;96910.31;;;15.60;74.33
3150;BME280;32503;47.748;8.960;2022-10-16T02:15:30;96913.03;;;15.60;74.43
3150;BME280;32503;47.748;8.960;2022-10-16T02:17:57;96901.31;;;15.56;74.41
3150;BME280;32503;47.748;8.960;2022-10-16T02:20:27;96901.69;;;15.54;74.40
3150;BME280;32503;47.748;8.960;2022-10-16T02:22:56;96889.25;;;15.50;74.91
3150;BME280;32503;47.748;8.960;2022-10-16T02:25:27;96898.97;;;15.54;74.84
3150;BME280;32503;47.748;8.960;2022-10-16T02:28:01;96904.84;;;15.57;74.64
3150;BME280;32503;47.748;8.960;2022-10-16T02:30:33;96895.88;;;15.60;74.26
3150;BME280;32503;47.748;8.960;2022-10-16T02:33:05;96896.25;;;15.62;74.04
3150;BME280;32503;47.748;8.960;2022-10-16T02:35:34;96886.16;;;15.59;73.93
3150;BME280;32503;47.748;8.960;2022-10-16T02:38:03;96886.91;;;15.52;73.86
3150;BME280;32503;47.748;8.960;2022-10-16T02:40:31;96903.28;;;15.59;74.19
3150;BME280;32503;47.748;8.960;2022-10-16T02:43:00;96904.03;;;15.52;73.92
3150;BME280;32503;47.748;8.960;2022-10-16T02:45:27;96907.13;;;15.47;74.29
3150;BME280;32503;47.748;8.960;2022-10-16T02:47:54;96895.06;;;15.45;74.41
3150;BME280;32503;47.748;8.960;2022-10-16T02:50:21;96894.31;;;15.44;74.47
3150;BME280;32503;47.748;8.960;2022-10-16T02:52:50;96901.69;;;15.47;74.18
3150;BME280;32503;47.748;8.960;2022-10-16T02:55:17;96897.44;;;15.50;74.16
3150;BME280;32503;47.748;8.960;2022-10-16T02:57:44;96897.81;;;15.52;73.64
3150;BME280;32503;47.748;8.960;2022-10-16T03:00:15;96886.53;;;15.46;73.96
3150;BME280;32503;47.748;8.960;2022-10-16T03:02:43;96877.53;;;15.35;74.01
3150;BME280;32503;47.748;8.960;2022-10-16T03:05:10;96883.78;;;15.35;74.60
3150;BME280;32503;47.748;8.960;2022-10-16T03:07:37;96884.53;;;15.36;74.34
3150;BME280;32503;47.748;8.960;2022-10-16T03:10:05;96893.09;;;15.38;74.50
3150;BME280;32503;47.748;8.960;2022-10-16T03:12:33;96890.38;;;15.38;74.34
3150;BME280;32503;47.748;8.960;2022-10-16T03:15:00;96897.78;;;15.38;74.30
3150;BME280;32503;47.748;8.960;2022-10-16T03:17:28;96901.66;;;15.36;74.49
3150;BME280;32503;47.748;8.960;2022-10-16T03:19:55;96908.66;;;15.34;74.65
3150;BME280;32503;47.748;8.960;2022-10-16T03:22:22;96900.03;;;15.21;75.18
3150;BME280;32503;47.748;8.960;2022-10-16T03:24:49;96918.75;;;15.30;75.03
3150;BME280;32503;47.748;8.960;2022-10-16T03:27:16;96908.66;;;15.34;74.98
3150;BME280;32503;47.748;8.960;2022-10-16T03:29:43;96917.22;;;15.32;74.92
3150;BME280;32503;47.748;8.960;2022-10-16T03:32:10;96906.31;;;15.29;74.54
3150;BME280;32503;47.748;8.960;2022-10-16T03:34:39;96917.59;;;15.31;74.56
3150;BME280;32503;47.748;8.960;2022-10-16T03:37:06;96916.38;;;15.17;74.72
3150;BME280;32503;47.748;8.960;2022-10-16T03:39:33;96928.09;;;15.25;74.71
3150;BME280;32503;47.748;8.960;2022-10-16T03:42:00;96927.31;;;15.25;75.13
3150;BME280;32503;47.748;8.960;2022-10-16T03:44:27;96930.44;;;15.27;74.80
3150;BME280;32503;47.748;8.960;2022-10-16T03:46:54;96933.53;;;15.25;74.62
3150;BME280;32503;47.748;8.960;2022-10-16T03:49:21;96932.75;;;15.25;74.87
3150;BME280;32503;47.748;8.960;2022-10-16T03:51:49;96931.19;;;15.24;74.87
3150;BME280;32503;47.748;8.960;2022-10-16T03:54:16;96930.81;;;15.25;74.36
3150;BME280;32503;47.748;8.960;2022-10-16T03:56:43;96930.81;;;15.25;74.67
3150;BME280;32503;47.748;8.960;2022-10-16T03:59:10;96915.22;;;15.19;74.16
3150;BME280;32503;47.748;8.960;2022-10-16T04:01:37;96930.44;;;15.27;74.21
3150;BME280;32503;47.748;8.960;2022-10-16T04:04:04;96926.50;;;15.21;74.35
3150;BME280;32503;47.748;8.960;2022-10-16T04:06:31;96931.56;;;15.19;74.39
3150;BME280;32503;47.748;8.960;2022-10-16T04:09:00;96935.84;;;15.20;74.46
3150;BME280;32503;47.748;8.960;2022-10-16T04:11:27;96931.94;;;15.21;74.14
3150;BME280;32503;47.748;8.960;2022-10-16T04:13:54;96917.13;;;15.07;74.03
3150;BME280;32503;47.748;8.960;2022-10-16T04:16:21;96934.28;;;15.19;74.22
3150;BME280;32503;47.748;8.960;2022-10-16T04:18:48;96934.25;;;15.11;74.09
3150;BME280;32503;47.748;8.960;2022-10-16T04:21:15;96938.09;;;15.03;74.75
3150;BME280;32503;47.748;8.960;2022-10-16T04:23:42;96940.03;;;15.03;74.41
3150;BME280;32503;47.748;8.960;2022-10-16T04:26:11;96935.75;;;15.05;74.64
3150;BME280;32503;47.748;8.960;2022-10-16T04:28:38;96935.00;;;15.08;74.02
3150;BME280;32503;47.748;8.960;2022-10-16T04:31:05;96937.34;;;15.06;74.32
3150;BME280;32503;47.748;8.960;2022-10-16T04:33:32;96938.06;;;15.00;75.09
3150;BME280;32503;47.748;8.960;2022-10-16T04:36:01;96945.09;;;15.04;74.73
3150;BME280;32503;47.748;8.960;2022-10-16T04:38:29;96946.25;;;15.03;75.34
3150;BME280;32503;47.748;8.960;2022-10-16T04:40:56;96952.09;;;15.05;74.71
3150;BME280;32503;47.748;8.960;2022-10-16T04:43:24;96958.34;;;15.06;75.04
3150;BME280;32503;47.748;8.960;2022-10-16T04:45:51;96956.75;;;15.01;75.11
3150;BME280;32503;47.748;8.960;2022-10-16T04:48:20;96946.63;;;14.98;75.35
3150;BME280;32503;47.748;8.960;2022-10-16T04:50:47;96956.78;;;15.05;75.27
3150;BME280;32503;47.748;8.960;2022-10-16T04:53:14;96954.88;;;15.09;74.70
3150;BME280;32503;47.748;8.960;2022-10-16T04:55:41;96955.63;;;15.09;75.08
3150;BME280;32503;47.748;8.960;2022-10-16T04:58:09;96953.69;;;15.13;75.06
3150;BME280;32503;47.748;8.960;2022-10-16T05:00:38;96955.28;;;15.14;75.04
3150;BME280;32503;47.748;8.960;2022-10-16T05:03:05;96956.44;;;15.13;74.76
3150;BME280;32503;47.748;8.960;2022-10-16T05:05:34;96957.59;;;15.12;74.85
3150;BME280;32503;47.748;8.960;2022-10-16T05:08:02;96954.47;;;15.10;75.13
3150;BME280;32503;47.748;8.960;2022-10-16T05:10:29;96959.91;;;15.10;74.91
3150;BME280;32503;47.748;8.960;2022-10-16T05:12:56;96959.91;;;15.10;74.80
3150;BME280;32503;47.748;8.960;2022-10-16T05:15:23;96952.53;;;15.07;74.67
3150;BME280;32503;47.748;8.960;2022-10-16T05:17:54;96958.34;;;15.09;75.03
3150;BME280;32503;47.748;8.960;2022-10-16T05:20:21;96956.00;;;15.08;74.88
3150;BME280;32503;47.748;8.960;2022-10-16T05:22:49;96959.13;;;15.06;75.05
3150;BME280;32503;47.748;8.960;2022-10-16T05:25:16;96964.16;;;15.04;75.29
3150;BME280;32503;47.748;8.960;2022-10-16T05:27:46;96970.78;;;15.07;75.00
3150;BME280;32503;47.748;8.960;2022-10-16T05:30:14;96976.59;;;15.05;74.63
3150;BME280;32503;47.748;8.960;2022-10-16T05:32:41;96972.34;;;15.04;74.67
3150;BME280;32503;47.748;8.960;2022-10-16T05:35:10;96970.00;;;15.06;74.53
3150;BME280;32503;47.748;8.960;2022-10-16T05:37:37;96968.44;;;15.05;74.37
3150;BME280;32503;47.748;8.960;2022-10-16T05:40:05;96974.63;;;14.98;75.00
3150;BME280;32503;47.748;8.960;2022-10-16T05:42:32;96968.00;;;14.96;74.83
3150;BME280;32503;47.748;8.960;2022-10-16T05:44:59;96978.50;;;14.97;75.20
3150;BME280;32503;47.748;8.960;2022-10-16T05:47:26;96983.97;;;14.97;75.28
3150;BME280;32503;47.748;8.960;2022-10-16T05:49:53;96987.44;;;14.94;75.27
3150;BME280;32503;47.748;8.960;2022-10-16T05:52:22;96976.16;;;14.96;75.18
3150;BME280;32503;47.748;8.960;2022-10-16T05:54:49;96979.25;;;14.91;75.94
3150;BME280;32503;47.748;8.960;2022-10-16T05:57:16;96978.44;;;14.87;76.13
3150;BME280;32503;47.748;8.960;2022-10-16T05:59:43;96975.41;;;14.95;75.88
3150;BME280;32503;47.748;8.960;2022-10-16T06:02:12;96983.19;;;15.01;75.66
3150;BME280;32503;47.748;8.960;2022-10-16T06:04:40;96983.63;;;15.06;75.38
3150;BME280;32503;47.748;8.960;2022-10-16T06:07:07;96987.50;;;15.05;75.91
3150;BME280;32503;47.748;8.960;2022-10-16T06:09:35;96983.63;;;15.06;75.88
3150;BME280;32503;47.748;8.960;2022-10-16T06:12:02;96984.41;;;15.10;75.94
3150;BME280;32503;47.748;8.960;2022-10-16T06:14:29;96984.06;;;15.15;75.26
3150;BME280;32503;47.748;8.960;2022-10-16T06:16:56;96981.69;;;15.14;75.52
3150;BME280;32503;47.748;8.960;2022-10-16T06:19:24;96976.25;;;15.10;75.66
3150;BME280;32503;47.748;8.960;2022-10-16T06:21:50;96988.38;;;15.20;75.18
3150;BME280;32503;47.748;8.960;2022-10-16T06:24:18;96989.56;;;15.30;75.30
3150;BME280;32503;47.748;8.960;2022-10-16T06:26:46;96996.63;;;15.42;75.43
3150;BME280;32503;47.748;8.960;2022-10-16T06:29:13;97006.78;;;15.48;75.24
3150;BME280;32503;47.748;8.960;2022-10-16T06:31:40;97009.13;;;15.50;75.17
3150;BME280;32503;47.748;8.960;2022-10-16T06:34:09;97015.34;;;15.50;74.73
3150;BME280;32503;47.748;8.960;2022-10-16T06:36:37;97021.56;;;15.51;74.62
3150;BME280;32503;47.748;8.960;2022-10-16T06:39:05;97033.69;;;15.57;74.85
3150;BME280;32503;47.748;8.960;2022-10-16T06:41:33;97036.41;;;15.57;74.39
3150;BME280;32503;47.748;8.960;2022-10-16T06:44:05;97037.19;;;15.65;74.40
3150;BME280;32503;47.748;8.960;2022-10-16T06:46:33;97034.09;;;15.66;74.53
3150;BME280;32503;47.748;8.960;2022-10-16T06:49:00;97038.78;;;15.69;74.12
3150;BME280;32503;47.748;8.960;2022-10-16T06:51:27;97038.41;;;15.71;74.29
3150;BME280;32503;47.748;8.960;2022-10-16T06:53:55;97049.34;;;15.75;74.26
3150;BME280;32503;47.748;8.960;2022-10-16T06:56:25;97061.44;;;15.84;74.40
3150;BME280;32503;47.748;8.960;2022-10-16T06:58:53;97056.81;;;15.88;74.19
3150;BME280;32503;47.748;8.960;2022-10-16T07:01:23;97065.38;;;15.90;74.36
3150;BME280;32503;47.748;8.960;2022-10-16T07:03:51;97053.66;;;15.86;74.64
3150;BME280;32503;47.748;8.960;2022-10-16T07:06:20;97066.56;;;16.00;74.08
3150;BME280;32503;47.748;8.960;2022-10-16T07:08:48;97068.53;;;16.00;74.33
3150;BME280;32503;47.748;8.960;2022-10-16T07:11:18;97052.50;;;15.87;74.45
3150;BME280;32503;47.748;8.960;2022-10-16T07:13:46;97076.28;;;15.90;75.06
3150;BME280;32503;47.748;8.960;2022-10-16T07:16:17;97069.25;;;15.89;75.09
3150;BME280;32503;47.748;8.960;2022-10-16T07:18:46;97087.22;;;15.98;74.89
3150;BME280;32503;47.748;8.960;2022-10-16T07:21:16;97088.78;;;16.02;74.99
3150;BME280;32503;47.748;8.960;2022-10-16T07:23:45;97095.81;;;16.07;74.98
3150;BME280;32503;47.748;8.960;2022-10-16T07:26:12;97089.22;;;16.15;74.76
3150;BME280;32503;47.748;8.960;2022-10-16T07:28:42;97081.81;;;16.23;74.55
3150;BME280;32503;47.748;8.960;2022-10-16T07:31:15;97074.84;;;16.36;74.65
3150;BME280;32503;47.748;8.960;2022-10-16T07:33:45;97061.97;;;16.33;74.17
3150;BME280;32503;47.748;8.960;2022-10-16T07:36:14;97093.59;;;16.59;73.95
3150;BME280;32503;47.748;8.960;2022-10-16T07:38:41;97104.53;;;16.66;73.95
3150;BME280;32503;47.748;8.960;2022-10-16T07:41:11;97106.88;;;16.75;74.05
3150;BME280;32503;47.748;8.960;2022-10-16T07:43:39;97096.72;;;16.68;74.24
3150;BME280;32503;47.748;8.960;2022-10-16T07:46:06;97104.53;;;16.77;73.96
3150;BME280;32503;47.748;8.960;2022-10-16T07:48:34;97105.34;;;16.85;74.17
3150;BME280;32503;47.748;8.960;2022-10-16T07:51:05;97119.78;;;16.93;73.90
3150;BME280;32503;47.748;8.960;2022-10-16T07:53:33;97126.03;;;17.04;73.79
3150;BME280;32503;47.748;8.960;2022-10-16T07:56:01;97117.81;;;17.08;73.41
3150;BME280;32503;47.748;8.960;2022-10-16T07:58:29;97116.25;;;17.28;73.12
3150;BME280;32503;47.748;8.960;2022-10-16T08:00:57;97126.00;;;17.36;72.62
3150;BME280;32503;47.748;8.960;2022-10-16T08:03:24;97108.44;;;17.37;72.70
3150;BME280;32503;47.748;8.960;2022-10-16T08:05:51;97110.00;;;17.35;72.77
3150;BME280;32503;47.748;8.960;2022-10-16T08:08:20;97118.19;;;17.46;72.78
3150;BME280;32503;47.748;8.960;2022-10-16T08:10:47;97127.91;;;17.57;72.58
3150;BME280;32503;47.748;8.960;2022-10-16T08:13:14;97130.22;;;17.73;72.27
3150;BME280;32503;47.748;8.960;2022-10-16T08:15:41;97136.44;;;17.95;72.03
3150;BME280;32503;47.748;8.960;2022-10-16T08:18:10;97146.56;;;18.06;71.50
3150;BME280;32503;47.748;8.960;2022-10-16T08:20:39;97143.38;;;18.18;71.01
3150;BME280;32503;47.748;8.960;2022-10-16T08:23:06;97135.50;;;18.31;70.69
3150;BME280;32503;47.748;8.960;2022-10-16T08:25:36;97146.72;;;18.51;70.29
3150;BME280;32503;47.748;8.960;2022-10-16T08:28:04;97144.59;;;18.80;69.85
3150;BME280;32503;47.748;8.960;2022-10-16T08:30:32;97150.63;;;19.17;67.59
3150;BME280;32503;47.748;8.960;2022-10-16T08:32:59;97154.88;;;19.66;66.70
3150;BME280;32503;47.748;8.960;2022-10-16T08:35:27;97162.78;;;20.33;65.96
3150;BME280;32503;47.748;8.960;2022-10-16T08:37:54;97169.47;;;20.59;64.12
3150;BME280;32503;47.748;8.960;2022-10-16T08:40:25;97163.22;;;20.90;62.85
3150;BME280;32503;47.748;8.960;2022-10-16T08:43:20;97168.91;;;21.26;61.65
3150;BME280;32503;47.748;8.960;2022-10-16T08:46:12;97167.22;;;21.59;60.29
3150;BME280;32503;47.748;8.960;2022-10-16T08:48:46;97162.81;;;22.06;59.17
3150;BME280;32503;47.748;8.960;2022-10-16T08:51:20;97170.53;;;22.34;57.73
3150;BME280;32503;47.748;8.960;2022-10-16T08:53:53;97170.16;;;22.52;57.71
3150;BME280;32503;47.748;8.960;2022-10-16T08:56:22;97171.09;;;22.46;57.17
3150;BME280;32503;47.748;8.960;2022-10-16T08:58:52;97171.25;;;22.39;56.90
3150;BME280;32503;47.748;8.960;2022-10-16T09:01:22;97164.50;;;22.20;57.27
3150;BME280;32503;47.748;8.960;2022-10-16T09:04:21;97163.75;;;22.19;58.58
3150;BME280;32503;47.748;8.960;2022-10-16T09:06:56;97169.91;;;22.27;58.38
3150;BME280;32503;47.748;8.960;2022-10-16T09:09:44;97170.69;;;22.27;58.19
3150;BME280;32503;47.748;8.960;2022-10-16T09:12:22;97164.25;;;22.34;58.31
3150;BME280;32503;47.748;8.960;2022-10-16T09:15:07;97168.41;;;22.79;57.78
3150;BME280;32503;47.748;8.960;2022-10-16T09:17:50;97176.56;;;23.19;56.85
3150;BME280;32503;47.748;8.960;2022-10-16T09:20:34;97157.84;;;23.43;54.38
3150;BME280;32503;47.748;8.960;2022-10-16T09:23:15;97175.47;;;23.78;54.25
3150;BME280;32503;47.748;8.960;2022-10-16T09:25:46;97192.53;;;24.06;54.31
3150;BME280;32503;47.748;8.960;2022-10-16T09:28:15;97186.50;;;24.24;53.44
3150;BME280;32503;47.748;8.960;2022-10-16T09:30:44;97191.59;;;24.55;53.08
3150;BME280;32503;47.748;8.960;2022-10-16T09:33:13;97192.53;;;24.48;51.16
3150;BME280;32503;47.748;8.960;2022-10-16T09:35:43;97182.78;;;24.44;51.52
3150;BME280;32503;47.748;8.960;2022-10-16T09:38:23;97197.44;;;24.57;51.14
3150;BME280;32503;47.748;8.960;2022-10-16T09:40:51;97190.94;;;24.64;51.54
3150;BME280;32503;47.748;8.960;2022-10-16T09:43:23;97204.28;;;24.65;51.22
3150;BME280;32503;47.748;8.960;2022-10-16T09:46:03;97197.72;;;24.46;51.60
3150;BME280;32503;47.748;8.960;2022-10-16T09:48:36;97197.31;;;24.18;51.05
3150;BME280;32503;47.748;8.960;2022-10-16T09:51:15;97196.78;;;23.94;52.25
3150;BME280;32503;47.748;8.960;2022-10-16T09:53:45;97199.81;;;23.83;52.96
3150;BME280;32503;47.748;8.960;2022-10-16T09:56:22;97183.50;;;23.73;53.18
3150;BME280;32503;47.748;8.960;2022-10-16T09:58:51;97181.56;;;23.57;53.07
3150;BME280;32503;47.748;8.960;2022-10-16T10:01:21;97186.66;;;23.09;53.98
3150;BME280;32503;47.748;8.960;2022-10-16T10:03:49;97178.91;;;23.20;53.97
3150;BME280;32503;47.748;8.960;2022-10-16T10:06:23;97173.47;;;23.17;53.58
3150;BME280;32503;47.748;8.960;2022-10-16T10:08:58;97176.06;;;23.07;54.28
3150;BME280;32503;47.748;8.960;2022-10-16T10:11:44;97177.94;;;23.27;54.35
3150;BME280;32503;47.748;8.960;2022-10-16T10:14:20;97185.88;;;23.41;54.47
3150;BME280;32503;47.748;8.960;2022-10-16T10:16:51;97183.09;;;23.74;53.61
3150;BME280;32503;47.748;8.960;2022-10-16T10:19:20;97187.41;;;23.92;51.98
3150;BME280;32503;47.748;8.960;2022-10-16T10:21:49;97190.50;;;23.94;52.60
3150;BME280;32503;47.748;8.960;2022-10-16T10:24:18;97190.41;;;24.27;52.75
3150;BME280;32503;47.748;8.960;2022-10-16T10:26:56;97178.09;;;24.57;51.89
3150;BME280;32503;47.748;8.960;2022-10-16T10:29:39;97179.44;;;24.91;50.90
3150;BME280;32503;47.748;8.960;2022-10-16T10:32:21;97171.81;;;25.21;50.69
3150;BME280;32503;47.748;8.960;2022-10-16T10:35:07;97163.25;;;25.41;49.97
3150;BME280;32503;47.748;8.960;2022-10-16T10:37:56;97170.97;;;25.59;49.24
3150;BME280;32503;47.748;8.960;2022-10-16T10:40:40;97160.25;;;25.48;47.80
3150;BME280;32503;47.748;8.960;2022-10-16T10:43:29;97161.25;;;25.54;48.56
3150;BME280;32503;47.748;8.960;2022-10-16T10:46:04;97170.72;;;25.31;47.96
3150;BME280;32503;47.748;8.960;2022-10-16T10:48:58;97170.03;;;25.27;48.79
3150;BME280;32503;47.748;8.960;2022-10-16T10:51:37;97164.50;;;25.40;48.76
3150;BME280;32503;47.748;8.960;2022-10-16T10:54:16;97164.38;;;25.43;48.25
3150;BME280;32503;47.748;8.960;2022-10-16T10:56:56;97173.59;;;25.27;48.15
3150;BME280;32503;47.748;8.960;2022-10-16T10:59:55;97167.94;;;24.92;48.73
3150;BME280;32503;47.748;8.960;2022-10-16T11:02:33;97161.31;;;25.03;49.37
3150;BME280;32503;47.748;8.960;2022-10-16T11:05:39;97169.69;;;25.38;49.58
3150;BME280;32503;47.748;8.960;2022-10-16T11:08:14;97159.94;;;25.46;48.03
3150;BME280;32503;47.748;8.960;2022-10-16T11:10:52;97144.16;;;25.68;48.49
3150;BME280;32503;47.748;8.960;2022-10-16T11:13:29;97149.56;;;26.07;48.61
3150;BME280;32503;47.748;8.960;2022-10-16T11:16:01;97152.75;;;26.27;47.82
3150;BME280;32503;47.748;8.960;2022-10-16T11:18:40;97147.47;;;26.20;47.27
3150;BME280;32503;47.748;8.960;2022-10-16T11:21:14;97145.72;;;26.14;46.48
3150;BME280;32503;47.748;8.960;2022-10-16T11:23:47;97136.91;;;25.84;47.48
3150;BME280;32503;47.748;8.960;2022-10-16T11:26:23;97133.88;;;25.91;47.04
3150;BME280;32503;47.748;8.960;2022-10-16T11:28:53;97137.34;;;25.82;47.41
3150;BME280;32503;47.748;8.960;2022-10-16T11:31:28;97115.72;;;25.55;47.51
3150;BME280;32503;47.748;8.960;2022-10-16T11:34:03;97124.94;;;25.52;47.86
3150;BME280;32503;47.748;8.960;2022-10-16T11:36:38;97125.41;;;25.38;48.42
3150;BME280;32503;47.748;8.960;2022-10-16T11:39:19;97123.88;;;24.34;50.18
3150;BME280;32503;47.748;8.960;2022-10-16T11:41:50;97124.22;;;23.94;51.20
3150;BME280;32503;47.748;8.960;2022-10-16T11:44:36;97123.66;;;23.86;52.02
3150;BME280;32503;47.748;8.960;2022-10-16T11:47:15;97125.84;;;23.91;51.73
3150;BME280;32503;47.748;8.960;2022-10-16T11:49:47;97122.25;;;24.07;50.97
3150;BME280;32503;47.748;8.960;2022-10-16T11:52:24;97121.66;;;24.29;51.09
3150;BME280;32503;47.748;8.960;2022-10-16T11:54:56;97126.47;;;24.54;49.62
3150;BME280;32503;47.748;8.960;2022-10-16T11:57:29;97127.63;;;24.40;48.95
3150;BME280;32503;47.748;8.960;2022-10-16T12:00:01;97114.53;;;24.57;49.13
3150;BME280;32503;47.748;8.960;2022-10-16T12:02:50;97112.09;;;24.97;49.28
3150;BME280;32503;47.748;8.960;2022-10-16T12:05:25;97104.44;;;25.27;48.67
3150;BME280;32503;47.748;8.960;2022-10-16T12:08:08;97114.28;;;25.03;47.25
3150;BME280;32503;47.748;8.960;2022-10-16T12:10:38;97106.84;;;25.12;47.65
3150;BME280;32503;47.748;8.960;2022-10-16T12:13:28;97107.47;;;24.82;47.39
3150;BME280;32503;47.748;8.960;2022-10-16T12:16:22;97114.41;;;24.86;47.24
3150;BME280;32503;47.748;8.960;2022-10-16T12:19:13;97100.94;;;24.63;46.71
3150;BME280;32503;47.748;8.960;2022-10-16T12:21:41;97102.34;;;24.93;46.11
3150;BME280;32503;47.748;8.960;2022-10-16T12:24:27;97083.19;;;24.98;46.29
3150;BME280;32503;47.748;8.960;2022-10-16T12:26:55;97098.97;;;25.24;45.38
3150;BME280;32503;47.748;8.960;2022-10-16T12:29:36;97100.88;;;25.14;44.69
3150;BME280;32503;47.748;8.960;2022-10-16T12:32:22;97099.66;;;25.28;45.00
3150;BME280;32503;47.748;8.960;2022-10-16T12:34:51;97099.69;;;25.50;44.81
3150;BME280;32503;47.748;8.960;2022-10-16T12:37:22;97091.97;;;25.45;44.90
3150;BME280;32503;47.748;8.960;2022-10-16T12:39:54;97079.09;;;25.51;44.43
3150;BME280;32503;47.748;8.960;2022-10-16T12:42:34;97082.19;;;25.53;43.96
3150;BME280;32503;47.748;8.960;2022-10-16T12:45:13;97078.47;;;25.69;43.57
3150;BME280;32503;47.748;8.960;2022-10-16T12:47:51;97069.78;;;25.80;43.84
3150;BME280;32503;47.748;8.960;2022-10-16T12:50:38;97081.34;;;26.00;43.63
3150;BME280;32503;47.748;8.960;2022-10-16T12:53:19;97080.41;;;25.59;43.10
3150;BME280;32503;47.748;8.960;2022-10-16T12:56:01;97079.00;;;25.77;43.85
3150;BME280;32503;47.748;8.960;2022-10-16T12:58:53;97082.84;;;25.79;43.01
3150;BME280;32503;47.748;8.960;2022-10-16T13:01:37;97071.66;;;25.83;43.73
3150;BME280;32503;47.748;8.960;2022-10-16T13:07:24;97085.31;;;25.99;43.69
3150;BME280;32503;47.748;8.960;2022-10-16T13:10:06;97085.97;;;26.03;44.06
3150;BME280;32503;47.748;8.960;2022-10-16T13:13:00;97081.38;;;26.09;43.67
3150;BME280;32503;47.748;8.960;2022-10-16T13:15:50;97091.66;;;26.00;43.61
3150;BME280;32503;47.748;8.960;2022-10-16T13:18:23;97093.53;;;25.90;44.21
3150;BME280;32503;47.748;8.960;2022-10-16T13:21:07;97074.63;;;25.66;44.92
3150;BME280;32503;47.748;8.960;2022-10-16T13:23:44;97092.47;;;25.87;45.43
3150;BME280;32503;47.748;8.960;2022-10-16T13:26:26;97099.66;;;25.85;44.47
3150;BME280;32503;47.748;8.960;2022-10-16T13:29:00;97085.19;;;25.81;44.35
3150;BME280;32503;47.748;8.960;2022-10-16T13:31:28;97090.22;;;25.95;44.40
3150;BME280;32503;47.748;8.960;2022-10-16T13:33:58;97087.38;;;26.08;44.87
3150;BME280;32503;47.748;8.960;2022-10-16T13:36:28;97079.97;;;26.05;44.36
3150;BME280;32503;47.748;8.960;2022-10-16T13:39:06;97092.78;;;26.11;44.44